• Join FlightAware (Why Join?)
  • Login
  • US Flag 
11:49AM EDT


 

Airport Tracker/Info


-or-


 

Live Flight TrackerFlight Track Log ✈ N301DM ✈ 26-Jun-2013 ✈ KLRO

Flight Track Log - Related Links

Times and Time Zones

All times are in EDT time to prevent confusion due to time zone crossing. See the N301DM flight status page for this flight to view local times or setup timezone preferences in your user account.

Time Position Orientation Groundspeed Altitude Reporting Facility
EDT Latitude Longitude Course Direction KTS MPH feet Rate Location/Type
05:03PM 39.8128 -74.4381 56° Northeast 207 238 11,100  Level New York Center
05:04PM 39.7781 -74.4822 224° Southwest 164 189 12,800 1,560 Climbing New York Center
05:05PM 39.7475 -74.5264 228° Southwest 164 189 14,300 1,080 Climbing New York Center
05:06PM -19.8487 -160.2878 119° Southeast  Level Estimated
05:07PM -19.8119 -160.2297 56° Northeast  Level Estimated
05:08PM -19.7750 -160.1716 56° Northeast  Level Estimated
05:08PM 39.6636 -74.6075 217° Southwest 170 196 16,500  Level Washington Center
05:09PM 39.6139 -74.6406 207° Southwest 192 221 16,500  Level Washington Center
05:10PM 39.5642 -74.6764 209° Southwest 203 234 16,500  Level Washington Center
05:11PM 39.5122 -74.7119 208° Southwest 209 241 16,500  Level Washington Center
05:12PM 39.4647 -74.7447 208° Southwest 209 241 16,500  Level Washington Center
05:13PM 39.4150 -74.7803 209° Southwest 204 235 16,500  Level Washington Center
05:14PM 39.3672 -74.8131 208° Southwest 204 235 16,500  Level Washington Center
05:15PM 39.3153 -74.8486 208° Southwest 209 241 16,500  Level Washington Center
05:16PM 39.2656 -74.8864 210° Southwest 209 241 16,500 180 Level Washington Center
05:17PM 39.2156 -74.9192 207° Southwest 209 241 16,900 540 Climbing Washington Center
05:18PM 39.1678 -74.9517 208° Southwest 203 234 17,600 960 Climbing Washington Center
05:19PM 39.1200 -74.9842 208° Southwest 203 234 18,900 1,140 Climbing Washington Center
05:20PM 39.0764 -75.0142 208° Southwest 198 228 20,000 1,020 Climbing Washington Center
05:21PM 39.0286 -75.0439 206° Southwest 193 222 21,000 960 Climbing Washington Center
05:22PM 38.9831 -75.0708 205° Southwest 193 222 22,000 960 Climbing Washington Center
05:23PM 38.9372 -75.1006 207° Southwest 193 222 23,000 960 Climbing Washington Center
05:24PM 38.8936 -75.1383 214° Southwest 193 222 24,000 1,020 Climbing Washington Center
05:25PM 38.8519 -75.1653 207° Southwest 188 216 25,100 960 Climbing Washington Center
05:26PM 38.8083 -75.1947 208° Southwest 183 211 26,000 480 Climbing Washington Center
05:27PM 38.7647 -75.2294 212° Southwest 183 211 26,100  Climbing Washington Center
05:28PM 38.7064 -75.2644 205° Southwest 203 234 26,100  Level Washington Center
05:29PM 38.6503 -75.3072 211° Southwest 228 262 26,100  Level Washington Center
05:30PM 38.5900 -75.3419 204° Southwest 234 269 26,100  Level Washington Center
05:31PM 38.5317 -75.3872 211° Southwest 239 275 26,100  Level Washington Center
05:32PM 38.4711 -75.4247 206° Southwest 245 282 26,100  Level Washington Center
05:33PM 38.4108 -75.4644 207° Southwest 245 282 26,100  Level Washington Center
05:34PM 38.3503 -75.5044 207° Southwest 245 282 26,100  Level Washington Center
05:35PM 38.2961 -75.5547 216° Southwest 252 290 26,100  Level Washington Center
05:36PM 38.2439 -75.6075 218° Southwest 252 290 26,100  Level Washington Center
05:37PM 38.1939 -75.6500 214° Southwest 245 282 26,100  Level Washington Center
05:38PM 38.1419 -75.7000 217° Southwest 245 282 26,100  Level Washington Center
05:39PM 38.0875 -75.7528 217° Southwest 245 282 26,100  Level Washington Center
05:40PM 38.0353 -75.8106 221° Southwest 245 282 26,100  Level Washington Center
05:41PM 37.9769 -75.8525 210° Southwest 245 282 26,100  Level Washington Center
05:42PM 37.9267 -75.9025 218° Southwest 245 282 26,100  Level Washington Center
05:43PM 37.8722 -75.9494 214° Southwest 245 282 26,100  Level Washington Center
05:44PM 37.8200 -76.0019 218° Southwest 245 282 26,100  Level Washington Center
05:45PM 37.7678 -76.0567 220° Southwest 245 282 26,100  Level Washington Center
05:46PM 37.7153 -76.1064 217° Southwest 245 282 26,100  Level Washington Center
05:47PM 37.6547 -76.1611 216° Southwest 250 288 26,100  Level Washington Center
05:48PM 37.6022 -76.2000 210° Southwest 250 288 26,100  Level Washington Center
05:49PM 37.5478 -76.2519 217° Southwest 244 281 26,100  Level Washington Center
05:50PM 37.4953 -76.3011 217° Southwest 244 281 26,100  Level Washington Center
05:51PM 37.4408 -76.3503 216° Southwest 244 281 26,100  Level Washington Center
05:52PM 37.3864 -76.4022 217° Southwest 244 281 26,100  Level Washington Center
05:53PM 37.3317 -76.4486 214° Southwest 244 281 26,100  Level Washington Center
05:54PM 37.2772 -76.5003 217° Southwest 244 281 26,100  Level Washington Center
05:55PM 37.2225 -76.5517 217° Southwest 244 281 26,100  Level Washington Center
05:56PM 37.1678 -76.6006 215° Southwest 244 281 26,100  Level Washington Center
05:57PM 37.1153 -76.6467 215° Southwest 244 281 26,100  Level Washington Center
05:58PM 37.0606 -76.6956 215° Southwest 244 281 26,100  Level Washington Center
05:59PM 37.0058 -76.7467 217° Southwest 244 281 26,100  Level Washington Center
06:00PM 36.9533 -76.7978 218° Southwest 244 281 26,100  Level Washington Center
06:01PM 36.8986 -76.8436 214° Southwest 244 281 26,100  Level Washington Center
06:02PM 36.8458 -76.8947 218° Southwest 244 281 26,100  Level Washington Center
06:03PM 36.7911 -76.9406 214° Southwest 244 281 26,100  Level Washington Center
06:04PM 36.7342 -76.9939 217° Southwest 244 281 26,100  Level Washington Center
06:05PM 36.6794 -77.0422 215° Southwest 244 281 26,100  Level Washington Center
06:06PM 36.6286 -77.0931 219° Southwest 244 281 26,100  Level Washington Center
06:07PM 36.5758 -77.1439 218° Southwest 244 281 26,100  Level Washington Center
06:08PM 36.5208 -77.1944 216° Southwest 244 281 26,100  Level Washington Center
06:09PM 36.4681 -77.2475 219° Southwest 244 281 26,100  Level Washington Center
06:10PM 36.4131 -77.2953 215° Southwest 249 287 26,100  Level Washington Center
06:11PM 36.3581 -77.3483 218° Southwest 249 287 26,100  Level Washington Center
06:12PM 36.3053 -77.4014 219° Southwest 254 292 26,100  Level Washington Center
06:13PM 36.2500 -77.4517 216° Southwest 254 292 26,100  Level Washington Center
06:14PM 36.2036 -77.4967 218° Southwest 254 292 26,100  Level Washington Center
06:15PM 36.1506 -77.5469 217° Southwest 254 292 26,100  Level Washington Center
06:16PM 36.0956 -77.5969 216° Southwest 254 292 26,100  Level Washington Center
06:17PM 36.0444 -77.6497 220° Southwest 254 292 26,100  Level Washington Center
06:18PM 35.9975 -77.7100 226° Southwest 248 285 26,100  Level Washington Center
06:19PM 35.9528 -77.7706 228° Southwest 248 285 26,100  Level Washington Center
06:20PM 35.9078 -77.8333 229° Southwest 248 285 26,100  Level Washington Center
06:21PM 35.8606 -77.8936 226° Southwest 248 285 26,100  Level Washington Center
06:22PM 35.8014 -77.9378 211° Southwest 243 280 26,100  Level Washington Center
06:23PM 35.7400 -77.9847 212° Southwest 255 293 26,100  Level Washington Center
06:24PM 35.6847 -78.0292 213° Southwest 255 293 26,100  Level Washington Center
06:25PM 35.6256 -78.0681 208° Southwest 255 293 26,100  Level Washington Center
06:26PM 35.5683 -78.1122 212° Southwest 255 293 26,100  Level Washington Center
06:27PM 35.5028 -78.1561 209° Southwest 255 293 26,100  Level Washington Center
06:28PM 35.4411 -78.2000 210° Southwest 255 293 26,100  Level Washington Center
06:29PM 35.3819 -78.2414 210° Southwest 255 293 26,100  Level Washington Center
06:30PM 35.3203 -78.2853 210° Southwest 255 293 26,100  Level Washington Center
06:31PM 35.2608 -78.3292 211° Southwest 255 293 26,100  Level Washington Center
06:32PM 35.1975 -78.3675 206° Southwest 255 293 26,100  Level Washington Center
06:33PM 35.1381 -78.4061 208° Southwest 255 293 26,100  Level Washington Center
06:34PM 35.0767 -78.4447 207° Southwest 255 293 26,100  Level Washington Center
06:35PM 35.0131 -78.4856 208° Southwest 255 293 26,100  Level Washington Center
06:37PM 34.8906 -78.5597 206° Southwest 243 280 26,100  Level Jacksonville Center
06:38PM 34.8356 -78.5956 208° Southwest 238 274 26,100  Level Jacksonville Center
06:39PM 34.7783 -78.6339 209° Southwest 233 268 26,100  Level Jacksonville Center
06:40PM 34.7211 -78.6669 205° Southwest 233 268 26,100  Level Jacksonville Center
06:41PM 34.6639 -78.7025 207° Southwest 238 274 26,100  Level Jacksonville Center
06:42PM 34.6067 -78.7381 207° Southwest 238 274 26,100  Level Jacksonville Center
06:43PM 34.5472 -78.7736 206° Southwest 238 274 26,100 -60 Level Jacksonville Center
06:44PM 34.4822 -78.8222 212° Southwest 238 274 26,000 -180 Descending Jacksonville Center
06:45PM 34.4250 -78.8600 209° Southwest 238 274 25,800 -660 Descending Jacksonville Center
06:46PM 34.3658 -78.9056 212° Southwest 250 288 24,700 -1,080 Descending Jacksonville Center
06:47PM 34.3111 -78.9508 214° Southwest 250 288 23,700 -1,080 Descending Jacksonville Center
06:48PM 34.2561 -78.9936 213° Southwest 250 288 22,600 -1,080 Descending Jacksonville Center
06:49PM 34.1989 -79.0339 210° Southwest 244 281 21,600 -1,020 Descending Jacksonville Center
06:50PM 34.1394 -79.0714 208° Southwest 244 281 20,600 -1,080 Descending Jacksonville Center
06:51PM 34.0781 -79.1069 206° Southwest 249 287 19,500 -1,080 Descending Jacksonville Center
06:52PM 34.0206 -79.1394 205° Southwest 244 281 18,500 -1,020 Descending Jacksonville Center
06:53PM 33.9611 -79.1744 206° Southwest 239 275 17,500 -1,080 Descending Jacksonville Center
06:54PM 33.9056 -79.2069 206° Southwest 239 275 16,400 -840 Descending Jacksonville Center
06:55PM 33.8483 -79.2417 207° Southwest 239 275 15,900 -300 Descending Jacksonville Center
06:56PM 33.7928 -79.2739 206° Southwest 233 268 15,900  Level Jacksonville Center
06:57PM 33.7375 -79.3039 204° Southwest 233 268 15,900 -240 Level Jacksonville Center
06:58PM 33.6922 -79.3306 206° Southwest 226 260 15,500 -660 Descending Jacksonville Center
06:59PM 33.6347 -79.3628 205° Southwest 220 253 14,600 -900 Descending Jacksonville Center
07:00PM 33.5792 -79.3925 204° Southwest 220 253 13,800 -840 Descending Jacksonville Center
07:01PM 33.5236 -79.4244 206° Southwest 215 247 13,000 -840 Descending Jacksonville Center
07:02PM 33.4725 -79.4539 206° Southwest 215 247 12,200 -840 Descending Jacksonville Center
07:03PM 33.4189 -79.4858 206° Southwest 215 247 11,400 -600 Descending Jacksonville Center
07:04PM 33.3697 -79.5125 204° Southwest 215 247 11,000 -240 Descending Jacksonville Center
07:05PM 33.3183 -79.5444 207° Southwest 210 242 11,000 -600 Level Jacksonville Center
07:06PM 33.2689 -79.5711 204° Southwest 210 242 9,900 -1,140 Descending Jacksonville Center
07:07PM 33.2217 -79.6003 207° Southwest 205 236 8,800 -1,140 Descending Jacksonville Center
07:08PM 33.1722 -79.6267 204° Southwest 205 236 7,700 -1,140 Descending Jacksonville Center
07:09PM 33.1250 -79.6533 205° Southwest 194 223 6,600 -1,140 Descending Jacksonville Center
07:13PM 33.0186 -79.7074 203° Southwest  Level FlightAware Approximate
07:20PM 32.8978 -79.7829 140° Southeast  Level Estimated
07:21PM 32.8978 -79.7829 140° Southeast  Level Estimated
07:22PM 32.8978 -79.7829 140° Southeast  Level Estimated
07:23PM 32.8978 -79.7829 140° Southeast  Level Estimated
07:24PM 32.8978 -79.7829 140° Southeast  Level Estimated
07:25PM 32.8978 -79.7829 140° Southeast  Level Estimated
07:26PM 32.8978 -79.7829 140° Southeast  Level Estimated
07:27PM 32.8978 -79.7829 140° Southeast  Level Estimated
07:28PM 32.8978 -79.7829 140° Southeast  Level Estimated
07:29PM 32.8978 -79.7829 140° Southeast  Level Estimated
07:30PM 32.8978 -79.7829 140° Southeast  Level Estimated